createdAt,value
2018-07-24T00:00:37.887Z,17.80
2018-07-24T00:03:05.958Z,17.70
2018-07-24T00:05:34.050Z,17.70
2018-07-24T00:08:02.099Z,17.70
2018-07-24T00:10:30.203Z,17.70
2018-07-24T00:12:58.283Z,17.60
2018-07-24T00:15:26.343Z,17.60
2018-07-24T00:17:54.418Z,17.50
2018-07-24T00:20:22.494Z,17.50
2018-07-24T00:22:51.575Z,17.50
2018-07-24T00:25:19.713Z,17.40
2018-07-24T00:27:47.806Z,17.40
2018-07-24T00:30:15.954Z,17.40
2018-07-24T00:32:44.242Z,17.30
2018-07-24T00:35:12.341Z,17.30
2018-07-24T00:37:40.419Z,17.20
2018-07-24T00:40:08.553Z,17.10
2018-07-24T00:42:36.659Z,17.20
2018-07-24T00:45:04.802Z,17.10
2018-07-24T00:47:32.995Z,17.10
2018-07-24T00:50:01.076Z,17.10
2018-07-24T00:52:29.157Z,17.00
2018-07-24T00:54:57.294Z,17.00
2018-07-24T00:57:25.364Z,17.00
2018-07-24T00:59:53.504Z,16.90
2018-07-24T01:02:22.262Z,16.90
2018-07-24T01:04:50.334Z,16.90
2018-07-24T01:07:18.420Z,16.80
2018-07-24T01:09:46.529Z,16.80
2018-07-24T01:12:14.651Z,16.80
2018-07-24T01:14:42.792Z,16.70
2018-07-24T01:17:10.901Z,16.70
2018-07-24T01:19:39.116Z,16.70
2018-07-24T01:22:07.672Z,16.70
2018-07-24T01:24:39.593Z,16.60
2018-07-24T01:27:07.680Z,16.60
2018-07-24T01:29:35.834Z,16.60
2018-07-24T01:32:03.902Z,16.50
2018-07-24T01:34:32.026Z,16.50
2018-07-24T01:37:00.090Z,16.50
2018-07-24T01:39:28.215Z,16.50
2018-07-24T01:41:56.310Z,16.40
2018-07-24T01:44:25.360Z,16.30
2018-07-24T01:46:53.480Z,16.30
2018-07-24T01:49:21.584Z,16.30
2018-07-24T01:51:49.642Z,16.30
2018-07-24T01:54:17.771Z,16.30
2018-07-24T01:56:45.907Z,16.20
2018-07-24T01:59:13.967Z,16.20
2018-07-24T02:01:43.240Z,16.20
2018-07-24T02:04:11.296Z,16.20
2018-07-24T02:06:39.403Z,16.10
2018-07-24T02:09:08.796Z,16.10
2018-07-24T02:11:36.848Z,16.10
2018-07-24T02:14:04.908Z,16.00
2018-07-24T02:16:32.983Z,16.10
2018-07-24T02:19:01.238Z,16.00
2018-07-24T02:21:29.378Z,16.10
2018-07-24T02:23:57.455Z,16.00
2018-07-24T02:26:25.555Z,15.90
2018-07-24T02:28:53.623Z,15.90
2018-07-24T02:31:21.763Z,15.90
2018-07-24T02:33:49.853Z,15.80
2018-07-24T02:36:18.099Z,15.80
2018-07-24T02:38:46.546Z,15.70
2018-07-24T02:41:14.636Z,15.70
2018-07-24T02:43:42.751Z,15.70
2018-07-24T02:46:10.850Z,15.70
2018-07-24T02:48:38.946Z,15.60
2018-07-24T02:51:07.051Z,15.60
2018-07-24T02:53:35.131Z,15.60
2018-07-24T02:56:03.296Z,15.50
2018-07-24T02:58:31.470Z,15.50
2018-07-24T03:00:59.568Z,15.40
2018-07-24T03:03:27.700Z,15.50
2018-07-24T03:05:55.822Z,15.40
2018-07-24T03:08:23.928Z,15.40
2018-07-24T03:10:52.028Z,15.40
2018-07-24T03:13:20.123Z,15.40
2018-07-24T03:15:48.255Z,15.40
2018-07-24T03:18:16.347Z,15.30
2018-07-24T03:20:44.443Z,15.30
2018-07-24T03:23:12.572Z,15.30
2018-07-24T03:25:40.660Z,15.20
2018-07-24T03:28:08.765Z,15.30
2018-07-24T03:30:36.869Z,15.30
2018-07-24T03:33:04.974Z,15.30
2018-07-24T03:35:33.082Z,15.30
2018-07-24T03:38:01.177Z,15.30
2018-07-24T03:40:29.310Z,15.30
2018-07-24T03:42:57.422Z,15.20
2018-07-24T03:45:25.556Z,15.20
2018-07-24T03:48:56.899Z,15.20
2018-07-24T03:51:25.050Z,15.30
2018-07-24T03:53:53.144Z,15.30
2018-07-24T03:56:21.258Z,15.30
2018-07-24T03:58:49.363Z,15.30
2018-07-24T04:01:17.576Z,15.30
2018-07-24T04:03:45.700Z,15.30
2018-07-24T04:06:13.787Z,15.30
2018-07-24T04:08:41.881Z,15.30
2018-07-24T04:11:10.057Z,15.40
2018-07-24T04:13:38.204Z,15.40
2018-07-24T04:16:06.299Z,15.50
2018-07-24T04:18:38.811Z,15.60
2018-07-24T04:21:06.908Z,15.70
2018-07-24T04:23:35.095Z,15.70
2018-07-24T04:26:03.224Z,15.80
2018-07-24T04:28:31.271Z,15.90
2018-07-24T04:30:59.486Z,16.00
2018-07-24T04:33:27.519Z,16.10
2018-07-24T04:35:55.604Z,16.10
2018-07-24T04:38:23.703Z,16.20
2018-07-24T04:40:51.771Z,16.30
2018-07-24T04:43:19.879Z,16.40
2018-07-24T04:45:47.959Z,16.60
2018-07-24T04:48:16.029Z,16.70
2018-07-24T04:50:44.111Z,16.80
2018-07-24T04:53:12.200Z,17.00
2018-07-24T04:55:40.311Z,17.10
2018-07-24T04:58:08.395Z,17.30
2018-07-24T05:00:36.474Z,17.40
2018-07-24T05:03:05.408Z,17.50
2018-07-24T05:05:34.028Z,17.60
2018-07-24T05:08:02.096Z,17.70
2018-07-24T05:10:30.682Z,17.90
2018-07-24T05:12:58.941Z,18.10
2018-07-24T05:15:27.120Z,18.30
2018-07-24T05:17:55.840Z,18.50
2018-07-24T05:20:23.908Z,18.70
2018-07-24T05:22:51.996Z,19.00
2018-07-24T05:25:20.299Z,19.20
2018-07-24T05:27:48.549Z,19.40
2018-07-24T05:30:16.642Z,19.60
2018-07-24T05:32:45.042Z,19.70
2018-07-24T05:35:13.181Z,19.90
2018-07-24T05:37:41.452Z,20.10
2018-07-24T05:40:09.519Z,20.20
2018-07-24T05:42:37.594Z,20.30
2018-07-24T05:45:05.739Z,20.50
2018-07-24T05:47:34.016Z,20.60
2018-07-24T05:50:02.280Z,20.60
2018-07-24T05:52:30.378Z,20.70
2018-07-24T05:54:58.501Z,20.90
2018-07-24T05:57:26.643Z,21.10
2018-07-24T05:59:54.701Z,21.20
2018-07-24T06:02:22.795Z,21.50
2018-07-24T06:04:50.860Z,21.70
2018-07-24T06:07:18.942Z,21.90
2018-07-24T06:09:47.125Z,21.90
2018-07-24T06:12:15.248Z,21.80
2018-07-24T06:14:43.303Z,21.80
2018-07-24T06:17:11.365Z,22.10
2018-07-24T06:19:39.446Z,22.30
2018-07-24T06:22:07.559Z,22.50
2018-07-24T06:24:35.627Z,22.50
2018-07-24T06:27:03.674Z,22.60
2018-07-24T06:29:31.772Z,22.80
2018-07-24T06:31:59.834Z,22.90
2018-07-24T06:34:27.886Z,23.10
2018-07-24T06:36:55.987Z,23.40
2018-07-24T06:39:24.053Z,23.80
2018-07-24T06:41:52.187Z,23.90
2018-07-24T06:44:20.276Z,24.30
2018-07-24T06:46:48.329Z,24.70
2018-07-24T06:49:16.411Z,25.40
2018-07-24T06:51:44.613Z,26.20
2018-07-24T06:54:12.564Z,27.00
2018-07-24T06:56:40.695Z,27.80
2018-07-24T06:59:08.715Z,28.20
2018-07-24T07:01:36.783Z,28.50
2018-07-24T07:04:04.939Z,29.30
2018-07-24T07:06:33.003Z,30.00
2018-07-24T07:09:05.709Z,29.70
2018-07-24T07:11:34.480Z,29.90
2018-07-24T07:14:03.268Z,29.70
2018-07-24T07:16:31.481Z,30.10
2018-07-24T07:18:59.580Z,30.60
2018-07-24T07:21:27.627Z,31.20
2018-07-24T07:23:55.688Z,31.10
2018-07-24T07:26:23.760Z,31.20
2018-07-24T07:28:51.863Z,31.20
2018-07-24T07:31:19.932Z,31.10
2018-07-24T07:33:48.046Z,32.00
2018-07-24T07:36:16.090Z,32.70
2018-07-24T07:38:44.147Z,32.00
2018-07-24T07:41:12.292Z,31.80
2018-07-24T07:43:40.387Z,32.20
2018-07-24T07:46:08.552Z,32.50
2018-07-24T07:48:36.606Z,33.00
2018-07-24T07:51:04.706Z,33.20
2018-07-24T07:53:32.873Z,33.40
2018-07-24T07:56:00.971Z,33.30
2018-07-24T07:58:29.042Z,33.60
2018-07-24T08:00:57.138Z,33.80
2018-07-24T08:03:25.209Z,33.20
2018-07-24T08:05:53.278Z,33.10
2018-07-24T08:08:21.358Z,32.90
2018-07-24T08:10:49.418Z,33.10
2018-07-24T08:13:17.493Z,34.00
2018-07-24T08:15:45.584Z,34.90
2018-07-24T08:18:13.663Z,34.80
2018-07-24T08:20:41.727Z,34.90
2018-07-24T08:23:09.803Z,35.50
2018-07-24T08:25:37.872Z,34.70
2018-07-24T08:28:06.081Z,34.90
2018-07-24T08:30:34.148Z,34.90
2018-07-24T08:33:02.206Z,35.50
2018-07-24T08:35:30.270Z,35.10
2018-07-24T08:37:58.358Z,35.50
2018-07-24T08:40:26.460Z,35.00
2018-07-24T08:42:54.556Z,34.90
2018-07-24T08:45:22.669Z,35.40
2018-07-24T08:47:50.734Z,34.70
2018-07-24T08:50:18.805Z,35.00
2018-07-24T08:52:46.974Z,34.90
2018-07-24T08:55:15.172Z,35.20
2018-07-24T08:57:43.096Z,35.70
2018-07-24T09:00:11.162Z,35.10
2018-07-24T09:02:39.258Z,35.40
2018-07-24T09:05:07.323Z,35.60
2018-07-24T09:07:35.408Z,35.20
2018-07-24T09:10:03.593Z,35.00
2018-07-24T09:12:31.655Z,34.00
2018-07-24T09:14:59.723Z,33.30
2018-07-24T09:17:27.831Z,33.60
2018-07-24T09:19:55.872Z,34.70
2018-07-24T09:22:23.933Z,35.30
2018-07-24T09:24:52.024Z,35.20
2018-07-24T09:27:20.098Z,35.40
2018-07-24T09:29:48.174Z,35.50
2018-07-24T09:32:16.283Z,35.30
2018-07-24T09:34:44.360Z,34.60
2018-07-24T09:37:12.423Z,35.10
2018-07-24T09:39:40.534Z,36.20
2018-07-24T09:42:08.587Z,35.60
2018-07-24T09:44:36.635Z,35.80
2018-07-24T09:47:04.728Z,35.10
2018-07-24T09:49:32.819Z,34.70
2018-07-24T09:52:00.875Z,34.10
2018-07-24T09:54:28.939Z,34.20
2018-07-24T09:56:56.986Z,34.70
2018-07-24T09:59:25.187Z,35.10
2018-07-24T10:01:53.250Z,35.40
2018-07-24T10:04:21.330Z,35.70
2018-07-24T10:06:49.447Z,36.30
2018-07-24T10:09:17.475Z,35.90
2018-07-24T10:11:45.535Z,35.50
2018-07-24T10:14:13.653Z,35.40
2018-07-24T10:16:41.918Z,35.20
2018-07-24T10:19:09.837Z,36.00
2018-07-24T10:21:37.923Z,35.80
2018-07-24T10:24:06.024Z,34.40
2018-07-24T10:26:34.080Z,33.80
2018-07-24T10:29:02.144Z,34.60
2018-07-24T10:31:30.263Z,34.20
2018-07-24T10:33:58.321Z,34.50
2018-07-24T10:36:26.422Z,34.80
2018-07-24T10:38:54.587Z,35.50
2018-07-24T10:41:22.651Z,35.60
2018-07-24T10:43:50.703Z,35.60
2018-07-24T10:46:18.826Z,35.50
2018-07-24T10:48:46.879Z,35.80
2018-07-24T10:51:14.943Z,35.80
2018-07-24T10:53:43.048Z,36.10
2018-07-24T10:56:11.124Z,35.70
2018-07-24T10:58:39.187Z,35.40
2018-07-24T11:01:07.308Z,35.50
2018-07-24T11:03:35.387Z,35.60
2018-07-24T11:06:03.459Z,35.70
2018-07-24T11:08:31.647Z,35.30
2018-07-24T11:10:59.730Z,35.50
2018-07-24T11:13:27.807Z,35.50
2018-07-24T11:15:55.903Z,35.70
2018-07-24T11:18:23.955Z,34.50
2018-07-24T11:20:52.020Z,34.50
2018-07-24T11:23:20.268Z,34.60
2018-07-24T11:25:48.268Z,34.90
2018-07-24T11:28:16.346Z,35.20
2018-07-24T11:30:44.545Z,35.10
2018-07-24T11:33:12.614Z,35.20
2018-07-24T11:35:40.778Z,35.00
2018-07-24T11:38:08.821Z,35.00
2018-07-24T11:40:36.899Z,34.80
2018-07-24T11:43:05.083Z,34.70
2018-07-24T11:45:33.145Z,34.30
2018-07-24T11:48:01.215Z,33.70
2018-07-24T11:50:29.284Z,33.60
2018-07-24T11:52:57.356Z,33.40
2018-07-24T11:55:25.423Z,33.10
2018-07-24T11:57:53.512Z,32.80
2018-07-24T12:00:21.579Z,32.30
2018-07-24T12:02:49.806Z,31.90
2018-07-24T12:05:21.347Z,31.80
2018-07-24T12:07:49.641Z,31.70
2018-07-24T12:10:17.717Z,31.60
2018-07-24T12:12:45.786Z,31.50
2018-07-24T12:15:13.899Z,31.40
2018-07-24T12:17:43.304Z,31.30
2018-07-24T12:20:11.352Z,31.30
2018-07-24T12:22:39.567Z,31.20
2018-07-24T12:25:07.603Z,30.90
2018-07-24T12:27:35.715Z,30.50
2018-07-24T12:30:03.880Z,30.70
2018-07-24T12:32:31.931Z,30.80
2018-07-24T12:35:00.000Z,30.70
2018-07-24T12:37:28.049Z,30.60
2018-07-24T12:39:56.123Z,30.40
2018-07-24T12:42:24.210Z,30.50
2018-07-24T12:44:52.275Z,30.70
2018-07-24T12:47:20.331Z,31.00
2018-07-24T12:49:48.400Z,31.00
2018-07-24T12:52:16.482Z,31.00
2018-07-24T12:54:44.580Z,31.00
2018-07-24T12:57:12.631Z,31.00
2018-07-24T13:02:08.603Z,30.80
2018-07-24T13:04:36.661Z,30.80
2018-07-24T13:07:04.711Z,30.90
2018-07-24T13:09:32.770Z,31.00
2018-07-24T13:12:00.831Z,31.00
2018-07-24T13:14:28.915Z,31.20
2018-07-24T13:16:56.962Z,31.10
2018-07-24T13:19:25.074Z,30.90
2018-07-24T13:21:53.131Z,30.70
2018-07-24T13:24:22.227Z,30.80
2018-07-24T13:26:50.290Z,30.90
2018-07-24T13:29:18.347Z,31.00
2018-07-24T13:31:46.443Z,31.20
2018-07-24T13:34:14.547Z,30.80
2018-07-24T13:36:42.631Z,30.70
2018-07-24T13:39:11.662Z,30.40
2018-07-24T13:41:39.978Z,30.40
2018-07-24T13:44:08.477Z,30.70
2018-07-24T13:46:36.548Z,30.90
2018-07-24T13:49:04.747Z,31.00
2018-07-24T13:51:32.818Z,31.00
2018-07-24T13:54:00.895Z,31.10
2018-07-24T13:56:28.979Z,31.20
2018-07-24T13:58:57.113Z,31.30
2018-07-24T14:01:25.129Z,31.10
2018-07-24T14:03:53.183Z,30.90
2018-07-24T14:06:21.283Z,30.80
2018-07-24T14:08:49.378Z,30.70
2018-07-24T14:11:17.483Z,30.60
2018-07-24T14:13:45.564Z,30.70
2018-07-24T14:16:13.635Z,30.80
2018-07-24T14:18:41.719Z,30.70
2018-07-24T14:21:09.847Z,30.80
2018-07-24T14:23:38.004Z,30.90
2018-07-24T14:26:06.090Z,30.90
2018-07-24T14:28:34.134Z,31.00
2018-07-24T14:31:02.200Z,30.90
2018-07-24T14:33:30.275Z,30.90
2018-07-24T14:35:58.315Z,30.90
2018-07-24T14:38:26.370Z,31.00
2018-07-24T14:40:54.575Z,30.90
2018-07-24T14:43:22.619Z,30.90
2018-07-24T14:45:50.679Z,30.70
2018-07-24T14:48:18.803Z,30.80
2018-07-24T14:50:46.849Z,30.60
2018-07-24T14:53:14.987Z,30.40
2018-07-24T14:55:43.055Z,30.40
2018-07-24T14:58:11.156Z,30.50
2018-07-24T15:00:39.268Z,30.50
2018-07-24T15:03:07.371Z,30.40
2018-07-24T15:05:35.590Z,30.40
2018-07-24T15:08:03.624Z,30.40
2018-07-24T15:10:31.687Z,30.40
2018-07-24T15:12:59.784Z,30.40
2018-07-24T15:15:27.855Z,30.40
2018-07-24T15:17:55.895Z,30.30
2018-07-24T15:20:23.971Z,30.40
2018-07-24T15:22:52.106Z,30.30
2018-07-24T15:25:20.155Z,30.20
2018-07-24T15:27:48.228Z,30.20
2018-07-24T15:30:16.276Z,30.10
2018-07-24T15:32:44.425Z,30.20
2018-07-24T15:35:12.544Z,30.10
2018-07-24T15:37:40.571Z,30.20
2018-07-24T15:40:08.683Z,30.10
2018-07-24T15:42:36.750Z,30.00
2018-07-24T15:45:05.007Z,30.00
2018-07-24T15:47:33.069Z,30.10
2018-07-24T15:50:01.128Z,30.00
2018-07-24T15:52:29.219Z,29.90
2018-07-24T15:54:57.276Z,29.80
2018-07-24T15:57:25.339Z,29.70
2018-07-24T15:59:53.468Z,29.70
2018-07-24T16:02:21.554Z,29.60
2018-07-24T16:04:49.645Z,29.60
2018-07-24T16:07:17.719Z,29.60
2018-07-24T16:09:46.787Z,29.70
2018-07-24T16:12:14.856Z,29.70
2018-07-24T16:14:42.956Z,29.60
2018-07-24T16:17:11.025Z,29.50
2018-07-24T16:19:39.083Z,29.50
2018-07-24T16:22:07.158Z,29.40
2018-07-24T16:24:35.213Z,29.50
2018-07-24T16:27:03.304Z,29.50
2018-07-24T16:29:31.395Z,29.50
2018-07-24T16:31:59.451Z,29.40
2018-07-24T16:34:27.527Z,29.40
2018-07-24T16:36:55.589Z,29.50
2018-07-24T16:39:23.660Z,29.40
2018-07-24T16:41:51.768Z,29.40
2018-07-24T16:44:20.263Z,29.40
2018-07-24T16:46:48.323Z,29.40
2018-07-24T16:49:16.418Z,29.40
2018-07-24T16:51:44.495Z,29.30
2018-07-24T16:54:12.571Z,29.30
2018-07-24T16:56:40.650Z,29.30
2018-07-24T16:59:08.710Z,29.30
2018-07-24T17:01:36.811Z,29.20
2018-07-24T17:04:04.885Z,29.20
2018-07-24T17:06:32.975Z,29.10
2018-07-24T17:09:01.019Z,29.20
2018-07-24T17:11:29.110Z,29.20
2018-07-24T17:13:57.236Z,29.10
2018-07-24T17:16:25.315Z,29.10
2018-07-24T17:18:53.418Z,29.10
2018-07-24T17:21:21.515Z,29.00
2018-07-24T17:23:49.643Z,29.00
2018-07-24T17:26:17.877Z,28.90
2018-07-24T17:28:45.977Z,28.90
2018-07-24T17:31:14.040Z,28.90
2018-07-24T17:33:42.139Z,28.80
2018-07-24T17:36:10.381Z,28.80
2018-07-24T17:38:38.480Z,28.80
2018-07-24T17:41:06.548Z,28.70
2018-07-24T17:43:34.619Z,28.70
2018-07-24T17:46:02.696Z,28.60
2018-07-24T17:48:30.967Z,28.60
2018-07-24T17:50:59.016Z,28.60
2018-07-24T17:53:27.127Z,28.60
2018-07-24T17:55:55.211Z,28.50
2018-07-24T17:58:23.264Z,28.50
2018-07-24T18:00:51.426Z,28.40
2018-07-24T18:03:19.486Z,28.40
2018-07-24T18:05:47.571Z,28.40
2018-07-24T18:08:15.647Z,28.30
2018-07-24T18:10:43.699Z,28.30
2018-07-24T18:13:11.846Z,28.20
2018-07-24T18:15:39.919Z,28.20
2018-07-24T18:18:07.988Z,28.20
2018-07-24T18:20:36.175Z,28.10
2018-07-24T18:23:04.305Z,28.10
2018-07-24T18:25:32.424Z,28.00
2018-07-24T18:28:00.479Z,27.90
2018-07-24T18:30:28.615Z,27.90
2018-07-24T18:32:56.667Z,27.70
2018-07-24T18:35:24.712Z,27.60
2018-07-24T18:37:52.788Z,27.60
2018-07-24T18:40:20.952Z,27.40
2018-07-24T18:42:49.019Z,27.30
2018-07-24T18:45:17.116Z,27.30
2018-07-24T18:47:45.789Z,27.10
2018-07-24T18:50:13.936Z,27.00
2018-07-24T18:52:42.030Z,27.00
2018-07-24T18:55:10.105Z,26.90
2018-07-24T18:57:38.176Z,26.80
2018-07-24T19:00:06.366Z,26.70
2018-07-24T19:02:34.487Z,26.60
2018-07-24T19:05:02.577Z,26.50
2018-07-24T19:07:30.652Z,26.30
2018-07-24T19:09:58.720Z,26.20
2018-07-24T19:12:26.787Z,26.10
2018-07-24T19:14:54.867Z,26.10
2018-07-24T19:17:22.989Z,26.10
2018-07-24T19:19:51.068Z,26.10
2018-07-24T19:22:19.216Z,26.10
2018-07-24T19:24:47.331Z,26.10
2018-07-24T19:27:15.467Z,26.00
2018-07-24T19:29:43.655Z,26.00
2018-07-24T19:32:11.837Z,26.10
2018-07-24T19:34:39.915Z,26.00
2018-07-24T19:37:08.018Z,25.90
2018-07-24T19:39:36.080Z,25.90
2018-07-24T19:42:04.199Z,25.90
2018-07-24T19:44:32.244Z,25.80
2018-07-24T19:47:00.283Z,25.70
2018-07-24T19:49:28.448Z,25.60
2018-07-24T19:51:56.455Z,25.60
2018-07-24T19:54:24.501Z,25.40
2018-07-24T19:56:52.575Z,25.40
2018-07-24T19:59:20.654Z,25.30
2018-07-24T20:01:48.754Z,25.30
2018-07-24T20:04:16.807Z,25.30
2018-07-24T20:06:44.868Z,25.20
2018-07-24T20:09:13.027Z,25.10
2018-07-24T20:11:41.110Z,25.00
2018-07-24T20:14:09.210Z,24.90
2018-07-24T20:16:37.496Z,24.90
2018-07-24T20:19:05.573Z,24.90
2018-07-24T20:21:33.681Z,24.80
2018-07-24T20:24:01.766Z,24.70
2018-07-24T20:26:29.863Z,24.60
2018-07-24T20:28:58.078Z,24.50
2018-07-24T20:31:27.814Z,24.50
2018-07-24T20:33:55.930Z,24.40
2018-07-24T20:36:23.999Z,24.40
2018-07-24T20:38:52.072Z,24.30
2018-07-24T20:41:20.159Z,24.20
2018-07-24T20:43:48.213Z,24.20
2018-07-24T20:46:16.319Z,24.10
2018-07-24T20:48:44.388Z,24.00
2018-07-24T20:51:12.536Z,24.00
2018-07-24T20:53:40.563Z,23.90
2018-07-24T20:56:08.621Z,23.80
2018-07-24T20:58:36.695Z,23.70
2018-07-24T21:01:04.763Z,23.60
2018-07-24T21:03:33.000Z,23.50
2018-07-24T21:06:01.107Z,23.50
2018-07-24T21:08:29.742Z,23.40
2018-07-24T21:10:57.836Z,23.40
2018-07-24T21:13:25.927Z,23.30
2018-07-24T21:15:53.983Z,23.20
2018-07-24T21:18:22.089Z,23.10
2018-07-24T21:20:50.188Z,23.00
2018-07-24T21:23:18.250Z,23.00
2018-07-24T21:25:46.348Z,22.80
2018-07-24T21:28:14.434Z,22.80
2018-07-24T21:30:42.523Z,22.80
2018-07-24T21:33:10.577Z,22.80
2018-07-24T21:35:38.667Z,22.70
2018-07-24T21:38:06.772Z,22.60
2018-07-24T21:40:34.834Z,22.50
2018-07-24T21:43:02.943Z,22.50
2018-07-24T21:45:31.017Z,22.40
2018-07-24T21:47:59.083Z,22.40
2018-07-24T21:50:27.347Z,22.30
2018-07-24T21:52:55.379Z,22.30
2018-07-24T21:55:23.459Z,22.20
2018-07-24T21:57:51.962Z,22.10
2018-07-24T22:00:20.088Z,22.20
2018-07-24T22:02:48.196Z,22.10
2018-07-24T22:05:16.251Z,22.00
2018-07-24T22:07:44.327Z,22.00
2018-07-24T22:10:17.747Z,21.90
2018-07-24T22:12:46.019Z,21.90
2018-07-24T22:15:20.316Z,21.80
2018-07-24T22:17:48.431Z,21.80
2018-07-24T22:20:16.848Z,21.70
2018-07-24T22:22:45.076Z,21.70
2018-07-24T22:25:13.247Z,21.60
2018-07-24T22:27:41.396Z,21.60
2018-07-24T22:30:10.252Z,21.60
2018-07-24T22:32:38.531Z,21.50
2018-07-24T22:35:06.959Z,21.50
2018-07-24T22:37:35.422Z,21.50
2018-07-24T22:40:03.520Z,21.40
2018-07-24T22:42:31.615Z,21.40
2018-07-24T22:44:59.694Z,21.40
2018-07-24T22:47:27.976Z,21.30
2018-07-24T22:49:56.047Z,21.30
2018-07-24T22:52:24.183Z,21.20
2018-07-24T22:54:52.364Z,21.20
2018-07-24T22:57:20.512Z,21.20
2018-07-24T22:59:48.571Z,21.20
2018-07-24T23:02:16.615Z,21.10
2018-07-24T23:04:44.690Z,21.10
2018-07-24T23:07:12.762Z,21.10
2018-07-24T23:09:41.160Z,21.00
2018-07-24T23:14:37.203Z,20.90
2018-07-24T23:17:05.297Z,20.90
2018-07-24T23:19:33.392Z,20.90
2018-07-24T23:22:01.475Z,20.90
2018-07-24T23:24:29.535Z,20.90
2018-07-24T23:27:04.204Z,20.80
2018-07-24T23:29:32.256Z,20.80
2018-07-24T23:32:00.323Z,20.70
2018-07-24T23:34:28.387Z,20.70
2018-07-24T23:36:56.489Z,20.70
2018-07-24T23:39:24.557Z,20.70
2018-07-24T23:41:52.611Z,20.70
2018-07-24T23:44:20.719Z,20.60
2018-07-24T23:46:48.799Z,20.60
2018-07-24T23:49:16.891Z,20.50
2018-07-24T23:51:45.015Z,20.50
2018-07-24T23:54:13.081Z,20.60
2018-07-24T23:56:41.195Z,20.50
2018-07-24T23:59:09.348Z,20.50
